Time;durP1;ratioP1;P1;durP2;ratioP2;P2;SDS_P1;SDS_P2;PMS_P1;PMS_P2;Temp;Humidity;BMP_temperature;BMP_pressure;BME280_temperature;BME280_humidity;BME280_pressure;Samples;Min_cycle;Max_cycle;Signal;HPM_P1;HPM_P2
2021/08/20 00:02:02;;;;;;;4.15;1.90;;;;;;;14.20;73.70;99322.75;1704404;83;20970;-54
2021/08/20 00:04:29;;;;;;;6.45;2.70;;;;;;;14.20;73.70;99322.75;1708001;81;21599;-54
2021/08/20 00:06:57;;;;;;;6.65;2.70;;;;;;;14.19;73.55;99325.94;1708315;81;21104;-55
2021/08/20 00:09:24;;;;;;;5.40;2.02;;;;;;;14.14;73.59;99315.90;1733366;81;21039;-54
2021/08/20 00:11:52;;;;;;;3.12;1.67;;;;;;;14.10;73.78;99326.58;1722826;82;21502;-54
2021/08/20 00:14:19;;;;;;;4.60;1.80;;;;;;;14.10;73.78;99326.58;1730905;80;21566;-55
2021/08/20 00:16:47;;;;;;;6.42;1.22;;;;;;;14.07;73.56;99323.20;1762164;80;22607;-55
2021/08/20 00:19:13;;;;;;;6.62;1.95;;;;;;;14.05;73.60;99318.38;1762837;80;21539;-55
2021/08/20 00:21:41;;;;;;;2.47;1.82;;;;;;;14.03;73.64;99323.41;1762791;80;21491;-54
2021/08/20 00:24:10;;;;;;;3.37;1.80;;;;;;;14.01;73.71;99327.21;1762820;80;21582;-55
2021/08/20 00:26:38;;;;;;;3.72;1.77;;;;;;;14.01;73.74;99335.33;1761857;79;21056;-55
2021/08/20 00:29:06;;;;;;;3.47;2.10;;;;;;;14.00;73.84;99328.18;1763867;80;21131;-54
2021/08/20 00:31:34;;;;;;;3.90;2.10;;;;;;;13.99;73.82;99338.13;1759437;80;21084;-55
2021/08/20 00:34:00;;;;;;;2.77;1.60;;;;;;;14.00;73.79;99339.00;1768985;80;21104;-55
2021/08/20 00:36:28;;;;;;;2.27;1.90;;;;;;;14.01;73.82;99335.33;1760683;80;21049;-54
2021/08/20 00:38:55;;;;;;;2.15;1.57;;;;;;;14.00;73.87;99337.16;1758916;80;21052;-54
2021/08/20 00:41:21;;;;;;;4.67;2.25;;;;;;;14.02;73.81;99338.42;1759711;79;22457;-54
2021/08/20 00:43:48;;;;;;;5.83;2.10;;;;;;;14.02;73.73;99342.48;1758281;79;21148;-55
2021/08/20 00:46:14;;;;;;;4.72;1.92;;;;;;;14.00;73.65;99339.88;1761184;80;20974;-54
2021/08/20 00:48:40;;;;;;;4.42;3.08;;;;;;;13.97;73.67;99337.36;1757728;80;21280;-55
2021/08/20 00:51:19;;;;;;;5.40;2.35;;;;;;;13.95;73.68;99337.11;1763579;80;21069;-54
2021/08/20 00:53:48;;;;;;;2.27;1.95;;;;;;;13.91;73.71;99340.98;1764960;79;21022;-54
2021/08/20 00:56:16;;;;;;;7.20;2.42;;;;;;;13.88;73.75;99342.05;1760865;79;21655;-54
2021/08/20 00:58:44;;;;;;;4.92;1.77;;;;;;;13.87;73.74;99340.80;1763250;79;20999;-54
2021/08/20 01:01:10;;;;;;;6.87;1.37;;;;;;;13.85;73.72;99353.10;1765257;80;21076;-54
2021/08/20 01:03:37;;;;;;;3.02;1.92;;;;;;;13.84;73.82;99361.31;1758798;80;21081;-54
2021/08/20 01:06:04;;;;;;;2.47;2.05;;;;;;;13.84;73.88;99357.25;1766985;80;21141;-54
2021/08/20 01:08:31;;;;;;;3.60;2.30;;;;;;;13.85;73.92;99365.76;1763610;79;21061;-54
2021/08/20 01:11:00;;;;;;;2.40;1.80;;;;;;;13.86;73.95;99359.38;1764501;79;20902;-54
2021/08/20 01:13:36;;;;;;;5.78;2.55;;;;;;;13.86;73.95;99365.66;1763068;80;21350;-54
2021/08/20 01:16:04;;;;;;;2.00;1.87;;;;;;;13.83;73.96;99361.80;1762816;80;20950;-54
2021/08/20 01:18:33;;;;;;;2.50;1.32;;;;;;;13.83;73.97;99366.34;1735109;80;21106;-54
2021/08/20 01:21:11;;;;;;;3.22;1.50;;;;;;;13.82;73.98;99361.89;1767646;79;20910;-54
2021/08/20 01:23:38;;;;;;;1.65;1.30;;;;;;;13.82;74.04;99364.60;1764844;80;20878;-54
2021/08/20 01:26:06;;;;;;;2.75;1.20;;;;;;;13.82;74.08;99369.53;1764792;80;20907;-54
2021/08/20 01:28:33;;;;;;;4.10;2.25;;;;;;;13.81;74.06;99363.73;1765179;79;20898;-54
2021/08/20 01:31:02;;;;;;;3.20;1.80;;;;;;;13.82;74.08;99375.42;1762627;79;21100;-54
2021/08/20 01:33:30;;;;;;;2.17;1.80;;;;;;;13.81;74.07;99382.67;1761983;80;20915;-54
2021/08/20 01:35:56;;;;;;;3.72;2.22;;;;;;;13.81;74.05;99383.16;1763365;79;20934;-54
2021/08/20 01:38:23;;;;;;;2.92;1.82;;;;;;;13.77;74.01;99378.45;1773814;79;20914;-55
2021/08/20 01:40:50;;;;;;;7.22;1.57;;;;;;;13.75;74.00;99388.50;1703350;82;20970;-54
2021/08/20 01:43:17;;;;;;;2.65;1.37;;;;;;;13.74;73.97;99383.19;1763613;80;21139;-54
2021/08/20 01:45:45;;;;;;;2.42;1.52;;;;;;;13.72;74.03;99383.77;1766057;80;20967;-55
2021/08/20 01:48:11;;;;;;;4.65;1.85;;;;;;;13.70;74.13;99381.64;1768596;79;21038;-54
2021/08/20 01:50:40;;;;;;;4.37;1.92;;;;;;;13.70;74.03;99391.98;1727427;82;21506;-54
2021/08/20 01:53:14;;;;;;;2.70;1.67;;;;;;;13.70;74.03;99391.98;1758501;80;21553;-53
2021/08/20 01:55:41;;;;;;;1.77;1.50;;;;;;;13.69;74.13;99391.63;1763658;80;21172;-54
2021/08/20 01:58:08;;;;;;;5.58;2.60;;;;;;;13.68;74.19;99386.31;1761353;79;21059;-55
2021/08/20 02:00:36;;;;;;;5.20;1.92;;;;;;;13.66;74.17;99398.58;1762287;80;20970;-53
2021/08/20 02:03:03;;;;;;;3.45;1.82;;;;;;;13.64;74.13;99391.04;1762550;79;20993;-54
2021/08/20 02:05:33;;;;;;;1.45;1.10;;;;;;;13.62;74.08;99388.91;1705635;82;21083;-53
2021/08/20 02:08:01;;;;;;;4.15;1.02;;;;;;;13.60;74.10;99387.70;1762779;80;21745;-53
2021/08/20 02:10:28;;;;;;;2.67;1.45;;;;;;;13.58;74.13;99389.63;1758314;79;21108;-52
2021/08/20 02:12:55;;;;;;;3.10;1.35;;;;;;;13.56;74.22;99390.20;1767186;79;21594;-54
2021/08/20 02:15:23;;;;;;;7.15;1.40;;;;;;;13.55;74.57;99393.00;1770904;78;20904;-52
2021/08/20 02:17:50;;;;;;;5.30;1.77;;;;;;;13.55;74.57;99393.00;1771005;80;20926;-53
2021/08/20 02:20:18;;;;;;;6.58;2.17;;;;;;;13.54;74.53;99396.67;1765281;78;21120;-53
2021/08/20 02:22:45;;;;;;;4.00;2.00;;;;;;;13.53;74.51;99396.28;1762640;80;21041;-53
2021/08/20 02:25:11;;;;;;;7.60;1.70;;;;;;;13.51;74.44;99395.06;1766890;79;21078;-53
2021/08/20 02:27:38;;;;;;;1.95;1.40;;;;;;;13.49;74.34;99394.28;1739419;80;21054;-53
2021/08/20 02:30:07;;;;;;;5.42;1.25;;;;;;;13.47;74.32;99397.56;1765265;80;21116;-53
2021/08/20 02:32:37;;;;;;;1.50;1.00;;;;;;;13.45;74.44;99405.38;1768927;80;21688;-53
2021/08/20 02:35:04;;;;;;;2.60;1.42;;;;;;;13.45;74.52;99402.20;1766596;79;21037;-53
2021/08/20 02:37:31;;;;;;;3.00;1.42;;;;;;;13.47;74.44;99404.80;1764754;80;21031;-54
2021/08/20 02:39:57;;;;;;;5.78;2.05;;;;;;;13.47;74.41;99398.92;1708645;82;21123;-54
2021/08/20 02:42:24;;;;;;;1.80;1.42;;;;;;;13.47;74.27;99404.80;1765675;80;21102;-53
2021/08/20 02:44:50;;;;;;;2.80;2.12;;;;;;;13.45;74.26;99406.73;1738921;80;21736;-53
2021/08/20 02:47:20;;;;;;;3.12;2.22;;;;;;;13.42;74.33;99407.83;1760229;79;21119;-53
2021/08/20 02:49:46;;;;;;;4.40;1.47;;;;;;;13.41;74.41;99410.62;1770667;79;21039;-52
2021/08/20 02:52:14;;;;;;;2.80;1.67;;;;;;;13.39;74.37;99405.31;1765515;79;21070;-53
2021/08/20 02:54:41;;;;;;;4.95;1.20;;;;;;;13.38;74.33;99410.81;1762281;79;21069;-54
2021/08/20 02:57:07;;;;;;;4.53;1.27;;;;;;;13.37;74.28;99410.42;1764618;80;21110;-54
2021/08/20 02:59:36;;;;;;;4.35;1.42;;;;;;;13.35;74.29;99415.09;1767448;80;21518;-53
2021/08/20 03:02:03;;;;;;;4.45;1.67;;;;;;;13.33;74.35;99407.07;1766788;80;21535;-52
2021/08/20 03:04:30;;;;;;;2.10;1.67;;;;;;;13.33;74.37;99412.96;1764686;80;21621;-53
2021/08/20 03:06:56;;;;;;;3.85;2.05;;;;;;;13.32;74.32;99418.84;1766403;79;21041;-53
2021/08/20 03:09:37;;;;;;;2.87;1.55;;;;;;;13.30;74.33;99409.09;1759397;80;21141;-54
2021/08/20 03:12:04;;;;;;;2.00;1.40;;;;;;;13.27;74.38;99415.55;1761214;80;21070;-52
2021/08/20 03:14:34;;;;;;;2.12;1.40;;;;;;;13.25;74.43;99411.63;1766677;79;21739;-54
2021/08/20 03:17:01;;;;;;;4.62;1.22;;;;;;;13.27;74.51;99419.61;1767232;79;21068;-52
2021/08/20 03:19:29;;;;;;;2.65;1.00;;;;;;;13.27;74.56;99423.66;1761197;80;21060;-53
2021/08/20 03:21:55;;;;;;;4.00;1.40;;;;;;;13.28;74.62;99424.05;1762174;79;21123;-54
2021/08/20 03:24:23;;;;;;;9.43;1.90;;;;;;;13.29;74.66;99425.79;1764541;79;21109;-52
2021/08/20 03:26:52;;;;;;;2.77;1.80;;;;;;;13.29;74.73;99424.44;1737724;80;21359;-52
2021/08/20 03:29:19;;;;;;;3.08;1.62;;;;;;;13.30;74.75;99428.01;1696065;82;21419;-53
2021/08/20 03:31:50;;;;;;;1.95;1.75;;;;;;;13.31;74.73;99423.86;1739183;79;21082;-52
2021/08/20 03:34:18;;;;;;;5.80;1.70;;;;;;;13.31;74.80;99422.52;1763998;79;21017;-52
2021/08/20 03:36:46;;;;;;;5.37;1.57;;;;;;;13.31;74.88;99422.52;1760601;80;21089;-52
2021/08/20 03:39:18;;;;;;;6.50;1.40;;;;;;;13.30;75.03;99426.18;1759093;80;21081;-53
2021/08/20 03:41:44;;;;;;;3.47;1.50;;;;;;;13.32;75.18;99426.95;1762399;79;21080;-52
2021/08/20 03:44:12;;;;;;;2.02;1.17;;;;;;;13.32;75.30;99424.73;1764339;79;20961;-53
2021/08/20 03:46:43;;;;;;;2.08;1.40;;;;;;;13.34;75.49;99425.03;1762008;80;22456;-52
2021/08/20 03:49:10;;;;;;;1.92;1.20;;;;;;;13.38;75.65;99425.20;1759210;79;21118;-51
2021/08/20 03:51:39;;;;;;;3.10;1.35;;;;;;;13.42;75.82;99424.05;1763376;80;21121;-52
2021/08/20 03:54:07;;;;;;;3.17;1.65;;;;;;;13.48;75.93;99427.70;1762712;80;21697;-52
2021/08/20 03:56:34;;;;;;;2.50;2.30;;;;;;;13.54;76.14;99432.69;1764541;80;21928;-51
2021/08/20 03:59:02;;;;;;;2.10;1.60;;;;;;;13.60;76.38;99432.31;1764906;79;21162;-51
2021/08/20 04:01:29;;;;;;;3.05;1.40;;;;;;;13.66;76.61;99428.33;1771275;79;20962;-52
2021/08/20 04:03:58;;;;;;;2.85;1.20;;;;;;;13.73;76.76;99430.13;1768003;80;21468;-51
2021/08/20 04:06:39;;;;;;;7.55;1.77;;;;;;;13.80;76.94;99436.87;1762721;80;20911;-52
2021/08/20 04:09:07;;;;;;;2.10;1.50;;;;;;;13.89;77.23;99438.48;1774603;80;20993;-51
2021/08/20 04:11:38;;;;;;;4.47;1.10;;;;;;;14.03;77.42;99441.64;1762682;80;21204;-52
2021/08/20 04:14:08;;;;;;;7.20;1.32;;;;;;;14.24;77.34;99440.17;1749624;80;20911;-52
2021/08/20 04:16:36;;;;;;;2.67;1.40;;;;;;;14.49;77.40;99439.38;1762762;80;20916;-54
2021/08/20 04:19:03;;;;;;;6.67;2.27;;;;;;;14.76;76.87;99440.66;1756312;80;20922;-52
2021/08/20 04:21:31;;;;;;;3.90;1.80;;;;;;;15.02;76.35;99438.33;1739503;80;21469;-53
2021/08/20 04:24:00;;;;;;;4.30;1.87;;;;;;;15.22;75.64;99435.55;1726174;82;20903;-51
2021/08/20 04:26:27;;;;;;;2.33;2.12;;;;;;;15.35;74.66;99433.67;1719288;82;20884;-52
2021/08/20 04:29:01;;;;;;;3.47;2.55;;;;;;;15.42;73.93;99431.38;1755813;80;20895;-52
2021/08/20 04:31:32;;;;;;;4.40;1.87;;;;;;;15.47;73.17;99431.44;1713373;80;21365;-51
2021/08/20 04:34:03;;;;;;;3.90;1.20;;;;;;;15.53;73.03;99436.89;1759648;80;20891;-52
2021/08/20 04:36:38;;;;;;;2.55;1.47;;;;;;;15.59;72.99;99438.30;1753141;80;21943;-52
2021/08/20 04:39:06;;;;;;;4.58;1.32;;;;;;;15.63;72.67;99439.83;1692558;82;21084;-52
2021/08/20 04:41:40;;;;;;;1.77;1.37;;;;;;;15.66;72.01;99432.80;1759389;80;24848;-52
2021/08/20 04:44:12;;;;;;;2.33;1.62;;;;;;;15.72;71.43;99435.08;1761917;80;21038;-52
2021/08/20 04:46:47;;;;;;;2.00;1.77;;;;;;;15.82;71.51;99425.28;1743341;80;21049;-53
2021/08/20 04:49:24;;;;;;;3.45;1.77;;;;;;;15.89;70.80;99426.55;1712574;82;21094;-52
2021/08/20 04:52:10;;;;;;;4.60;1.67;;;;;;;15.94;70.37;99427.55;1645756;86;22322;-51
2021/08/20 04:54:41;;;;;;;1.75;1.20;;;;;;;15.96;69.79;99426.45;1643176;85;21132;-52
2021/08/20 04:57:11;;;;;;;4.70;1.52;;;;;;;15.98;69.56;99428.57;1687556;80;21059;-51
2021/08/20 04:59:38;;;;;;;1.95;1.20;;;;;;;15.98;69.34;99429.06;1757877;80;21417;-53
2021/08/20 05:02:06;;;;;;;2.25;1.02;;;;;;;15.99;69.08;99429.44;1758576;80;21515;-52
2021/08/20 05:04:34;;;;;;;1.55;1.10;;;;;;;16.03;69.01;99430.44;1760962;79;20887;-50
2021/08/20 05:07:02;;;;;;;1.62;1.37;;;;;;;16.10;68.88;99433.55;1753969;80;21102;-51
2021/08/20 05:09:28;;;;;;;2.08;1.40;;;;;;;16.16;68.87;99435.30;1739901;80;20987;-51
2021/08/20 05:11:54;;;;;;;4.12;1.55;;;;;;;16.24;68.89;99432.89;1756576;80;21025;-51
2021/08/20 05:14:22;;;;;;;4.15;1.70;;;;;;;16.32;68.70;99431.44;1753739;80;21156;-52
2021/08/20 05:16:50;;;;;;;2.20;2.00;;;;;;;16.39;68.46;99436.27;1753647;80;21112;-53
2021/08/20 05:19:18;;;;;;;2.47;2.22;;;;;;;16.46;68.24;99429.86;1750260;80;21042;-52
2021/08/20 05:21:44;;;;;;;3.00;1.85;;;;;;;16.52;68.18;99436.17;1753904;80;21058;-52
2021/08/20 05:24:12;;;;;;;1.80;1.57;;;;;;;16.56;68.17;99430.40;1762296;80;21097;-52
2021/08/20 05:26:39;;;;;;;2.47;1.65;;;;;;;16.62;68.06;99427.72;1755184;80;21620;-52
2021/08/20 05:29:06;;;;;;;2.52;2.08;;;;;;;16.72;68.14;99429.23;1763972;79;21563;-52
2021/08/20 05:31:32;;;;;;;4.90;1.90;;;;;;;16.80;68.04;99427.64;1754969;80;21326;-53
2021/08/20 05:33:59;;;;;;;3.50;1.65;;;;;;;16.87;67.86;99420.72;1755229;80;22733;-53
2021/08/20 05:36:27;;;;;;;3.25;1.72;;;;;;;16.93;67.86;99418.00;1753099;80;21425;-54
2021/08/20 05:38:53;;;;;;;1.95;1.60;;;;;;;16.99;67.82;99425.20;1748212;80;21132;-52
2021/08/20 05:41:19;;;;;;;4.03;1.85;;;;;;;17.05;67.74;99426.55;1753585;80;21124;-52
2021/08/20 05:43:46;;;;;;;1.47;1.27;;;;;;;17.10;67.55;99431.12;1757860;80;21508;-52
2021/08/20 05:46:14;;;;;;;1.57;1.10;;;;;;;17.16;67.71;99429.29;1756884;80;21061;-52
2021/08/20 05:48:40;;;;;;;1.15;0.90;;;;;;;17.23;67.50;99430.52;1756068;80;21063;-53
2021/08/20 05:51:06;;;;;;;2.62;1.40;;;;;;;17.32;67.54;99431.14;1757105;79;21130;-53
2021/08/20 05:53:33;;;;;;;1.35;1.25;;;;;;;17.42;67.35;99428.55;1752024;80;21033;-52
2021/08/20 05:55:59;;;;;;;1.67;1.37;;;;;;;17.49;67.23;99422.09;1755890;80;21386;-53
2021/08/20 05:58:25;;;;;;;4.62;1.98;;;;;;;17.55;67.13;99421.59;1757567;80;21047;-54
2021/08/20 06:00:52;;;;;;;1.52;1.42;;;;;;;17.62;67.16;99422.34;1723622;81;21090;-53
2021/08/20 06:03:22;;;;;;;3.30;1.40;;;;;;;17.72;67.14;99427.90;1757622;80;22332;-53
2021/08/20 06:05:49;;;;;;;4.62;1.12;;;;;;;17.80;66.78;99415.88;1761324;80;20853;-53
2021/08/20 06:08:16;;;;;;;1.95;1.20;;;;;;;17.87;66.54;99418.45;1756409;80;21152;-54
2021/08/20 06:10:44;;;;;;;3.72;1.00;;;;;;;17.94;66.38;99418.34;1721317;82;21819;-52
2021/08/20 06:13:12;;;;;;;1.57;1.00;;;;;;;18.03;66.36;99418.89;1725755;81;21475;-53
2021/08/20 06:15:41;;;;;;;2.12;1.50;;;;;;;18.13;66.11;99419.85;1766600;79;21411;-52
2021/08/20 06:18:07;;;;;;;3.17;1.10;;;;;;;18.24;65.87;99416.73;1755498;80;21039;-52
2021/08/20 06:20:35;;;;;;;1.37;1.00;;;;;;;18.36;65.70;99421.14;1712210;82;21177;-51
2021/08/20 06:23:01;;;;;;;3.20;1.27;;;;;;;18.45;65.42;99413.55;1711881;81;20867;-52
2021/08/20 06:25:28;;;;;;;2.25;1.35;;;;;;;18.55;65.36;99417.18;1713443;83;20993;-52
2021/08/20 06:27:54;;;;;;;3.33;1.20;;;;;;;18.65;65.37;99415.42;1729871;81;21107;-51
2021/08/20 06:30:21;;;;;;;2.30;1.10;;;;;;;18.74;64.82;99416.48;1760934;79;21332;-53
2021/08/20 06:32:50;;;;;;;2.12;0.98;;;;;;;18.82;64.78;99409.87;1758039;80;21035;-53
2021/08/20 06:35:17;;;;;;;1.75;1.10;;;;;;;18.92;64.58;99409.43;1763333;80;21077;-53
2021/08/20 06:37:44;;;;;;;1.40;1.25;;;;;;;19.00;64.35;99404.66;1763965;79;21100;-52
2021/08/20 06:40:11;;;;;;;4.45;0.90;;;;;;;19.08;64.17;99408.44;1763911;80;22775;-53
2021/08/20 06:42:39;;;;;;;3.65;1.00;;;;;;;19.18;63.91;99409.36;1763677;80;21074;-52
2021/08/20 06:45:07;;;;;;;3.30;0.90;;;;;;;19.29;63.45;99407.04;1765538;80;21123;-51
2021/08/20 06:47:35;;;;;;;1.47;0.90;;;;;;;19.39;62.66;99407.95;1764088;80;21091;-53
2021/08/20 06:50:02;;;;;;;2.80;0.90;;;;;;;19.49;62.68;99408.85;1760298;80;21085;-51
2021/08/20 06:52:29;;;;;;;0.98;0.80;;;;;;;19.59;62.05;99408.89;1763054;80;21198;-52
2021/08/20 06:54:58;;;;;;;2.83;0.78;;;;;;;19.68;61.44;99409.92;1761610;80;21175;-53
2021/08/20 06:57:25;;;;;;;2.08;0.90;;;;;;;19.76;60.90;99408.72;1762215;79;21069;-55
2021/08/20 06:59:51;;;;;;;1.00;0.80;;;;;;;19.83;61.43;99408.01;1759392;80;21230;-51
2021/08/20 07:02:17;;;;;;;4.05;1.00;;;;;;;19.92;60.89;99399.47;1770662;80;21335;-55
2021/08/20 07:04:43;;;;;;;3.10;0.88;;;;;;;20.00;60.26;99411.91;1765303;80;21087;-54
2021/08/20 07:07:10;;;;;;;0.80;0.70;;;;;;;20.05;60.08;99406.91;1762244;79;21375;-53
2021/08/20 07:09:36;;;;;;;3.42;0.90;;;;;;;20.13;60.21;99413.02;1762145;80;21503;-53
2021/08/20 07:12:05;;;;;;;2.45;0.78;;;;;;;20.20;60.71;99410.94;1756809;80;21492;-53
2021/08/20 07:14:32;;;;;;;4.87;0.85;;;;;;;20.29;60.40;99406.48;1753735;80;20900;-54
2021/08/20 07:17:00;;;;;;;0.70;0.70;;;;;;;20.37;59.71;99411.63;1753482;80;21417;-53
2021/08/20 07:19:27;;;;;;;1.30;0.80;;;;;;;20.44;59.21;99410.53;1753820;80;20934;-52
2021/08/20 07:21:54;;;;;;;1.30;0.70;;;;;;;20.50;58.66;99407.75;1756075;80;20880;-52
2021/08/20 07:24:20;;;;;;;3.70;0.70;;;;;;;20.55;58.32;99411.77;1757159;79;20966;-53
2021/08/20 07:26:46;;;;;;;2.55;0.70;;;;;;;20.61;58.11;99412.54;1760861;80;20962;-53
2021/08/20 07:29:13;;;;;;;1.00;0.70;;;;;;;20.67;57.90;99412.48;1754476;80;21105;-54
2021/08/20 07:31:40;;;;;;;2.00;0.80;;;;;;;20.74;58.13;99409.02;1757204;80;20984;-52
2021/08/20 07:34:06;;;;;;;2.17;0.62;;;;;;;20.82;57.81;99406.05;1756553;80;20926;-53
2021/08/20 07:36:33;;;;;;;1.17;0.68;;;;;;;20.90;57.54;99417.97;1756960;79;20970;-53
2021/08/20 07:39:00;;;;;;;3.30;0.57;;;;;;;20.97;56.66;99410.03;1752632;80;21096;-54
2021/08/20 07:41:27;;;;;;;1.22;0.80;;;;;;;21.03;56.40;99408.06;1752445;80;21654;-53
2021/08/20 07:43:53;;;;;;;1.05;0.50;;;;;;;21.07;56.17;99411.73;1752114;80;21064;-54
2021/08/20 07:46:19;;;;;;;3.00;0.70;;;;;;;21.13;55.93;99405.66;1749778;80;22469;-53
2021/08/20 07:48:46;;;;;;;0.90;0.70;;;;;;;21.17;55.91;99408.11;1752988;80;21575;-54
2021/08/20 07:51:12;;;;;;;3.33;0.70;;;;;;;21.21;55.47;99398.09;1752023;80;21114;-54
2021/08/20 07:53:38;;;;;;;4.33;0.70;;;;;;;21.25;55.30;99400.91;1751359;80;21127;-54
2021/08/20 07:56:05;;;;;;;0.75;0.50;;;;;;;21.29;55.38;99400.08;1752737;79;21043;-53
2021/08/20 07:58:31;;;;;;;0.98;0.60;;;;;;;21.35;55.55;99398.14;1693565;82;21061;-53
2021/08/20 08:00:58;;;;;;;0.93;0.60;;;;;;;21.41;54.83;99403.00;1752089;80;21376;-54
2021/08/20 08:03:24;;;;;;;1.35;0.55;;;;;;;21.47;54.78;99399.65;1755738;80;21673;-53
2021/08/20 08:05:51;;;;;;;0.80;0.60;;;;;;;21.53;54.29;99406.73;1753395;79;21132;-53
2021/08/20 08:08:17;;;;;;;5.08;0.68;;;;;;;21.60;54.02;99399.31;1748676;80;22526;-53
2021/08/20 08:10:45;;;;;;;0.60;0.57;;;;;;;21.65;54.14;99390.11;1750859;80;21633;-54
2021/08/20 08:13:12;;;;;;;2.80;0.70;;;;;;;21.72;54.44;99392.59;1752625;80;21053;-52
2021/08/20 08:15:38;;;;;;;2.65;0.60;;;;;;;21.78;53.72;99385.98;1755833;79;21035;-54
2021/08/20 08:18:05;;;;;;;2.20;0.60;;;;;;;21.84;53.52;99390.87;1756254;79;22611;-53
2021/08/20 08:20:31;;;;;;;1.35;0.70;;;;;;;21.92;53.78;99395.58;1750636;80;22510;-53
2021/08/20 08:22:58;;;;;;;1.72;0.70;;;;;;;21.99;53.53;99395.84;1757085;80;21095;-55
2021/08/20 08:25:27;;;;;;;2.83;0.75;;;;;;;22.05;53.75;99400.19;1758557;80;21085;-55
2021/08/20 08:27:56;;;;;;;1.50;0.70;;;;;;;22.11;53.29;99394.62;1725092;81;21682;-56
2021/08/20 08:30:27;;;;;;;2.10;0.70;;;;;;;22.15;53.18;99392.77;1759528;79;21110;-56
2021/08/20 08:32:55;;;;;;;0.90;0.70;;;;;;;22.20;53.55;99390.94;1696172;82;20976;-55
2021/08/20 08:35:21;;;;;;;1.82;0.70;;;;;;;22.26;52.93;99391.17;1755978;80;21048;-56
2021/08/20 08:37:48;;;;;;;2.00;0.80;;;;;;;22.31;53.00;99382.45;1756227;80;21449;-56
2021/08/20 08:40:14;;;;;;;0.93;0.60;;;;;;;22.37;52.44;99390.59;1756285;80;21590;-56
2021/08/20 08:42:40;;;;;;;2.25;0.68;;;;;;;22.40;51.79;99386.13;1754699;79;21106;-53
2021/08/20 08:45:07;;;;;;;1.37;0.40;;;;;;;22.41;51.31;99385.98;1697183;82;21074;-54
2021/08/20 08:47:35;;;;;;;2.08;0.50;;;;;;;22.44;51.05;99392.53;1697361;82;21398;-53
2021/08/20 08:50:06;;;;;;;0.82;0.50;;;;;;;22.47;50.46;99383.97;1753391;80;21000;-54
2021/08/20 08:52:33;;;;;;;1.17;0.40;;;;;;;22.51;50.22;99388.13;1753992;80;21056;-54
2021/08/20 08:55:02;;;;;;;1.30;0.50;;;;;;;22.53;49.43;99383.36;1755331;80;21093;-54
2021/08/20 08:57:29;;;;;;;0.57;0.40;;;;;;;22.55;48.86;99378.55;1752249;80;20931;-53
2021/08/20 08:59:57;;;;;;;1.47;0.40;;;;;;;22.56;48.40;99377.53;1756676;79;21381;-55
2021/08/20 09:02:25;;;;;;;2.42;0.53;;;;;;;22.57;48.30;99387.48;1754621;80;20974;-53
2021/08/20 09:04:56;;;;;;;0.40;0.30;;;;;;;22.59;47.78;99385.97;1753079;80;21069;-54
2021/08/20 09:07:26;;;;;;;0.40;0.40;;;;;;;22.64;48.20;99380.34;1750622;80;21373;-52
2021/08/20 09:10:12;;;;;;;0.65;0.40;;;;;;;22.69;47.83;99389.48;1755210;80;21014;-53
2021/08/20 09:12:52;;;;;;;0.50;0.40;;;;;;;22.71;47.66;99377.84;1756862;80;22425;-54
2021/08/20 09:15:23;;;;;;;1.07;0.40;;;;;;;22.74;47.13;99378.91;1759392;80;21092;-54
2021/08/20 09:17:53;;;;;;;0.45;0.30;;;;;;;22.74;47.26;99378.02;1761283;80;22395;-53
2021/08/20 09:20:24;;;;;;;0.80;0.40;;;;;;;22.79;47.93;99382.56;1760370;80;21147;-55
2021/08/20 09:22:52;;;;;;;0.70;0.40;;;;;;;22.87;48.01;99383.98;1763737;79;21008;-53
2021/08/20 09:25:32;;;;;;;0.33;0.33;;;;;;;22.91;47.75;99383.48;1756988;80;21081;-54
2021/08/20 09:28:27;;;;;;;0.57;0.40;;;;;;;22.96;47.79;99387.14;1757084;80;21112;-53
2021/08/20 09:31:08;;;;;;;0.55;0.45;;;;;;;23.01;47.31;99377.39;1757403;79;21112;-52
2021/08/20 09:33:44;;;;;;;0.40;0.40;;;;;;;23.06;47.29;99381.00;1760572;80;21542;-53
2021/08/20 09:36:15;;;;;;;4.53;0.50;;;;;;;23.11;46.92;99381.91;1757753;79;21061;-54
2021/08/20 09:38:54;;;;;;;0.60;0.40;;;;;;;23.13;46.02;99380.73;1763252;80;20920;-53
2021/08/20 09:41:28;;;;;;;0.37;0.37;;;;;;;23.16;46.85;99384.50;1765359;79;21109;-54
2021/08/20 09:43:56;;;;;;;0.50;0.40;;;;;;;23.20;46.32;99387.28;1764787;79;21532;-53
2021/08/20 09:46:24;;;;;;;0.98;0.40;;;;;;;23.24;46.15;99388.66;1753762;80;21139;-53
2021/08/20 09:48:58;;;;;;;0.50;0.40;;;;;;;23.28;46.09;99372.73;1756130;80;21041;-52
2021/08/20 09:51:38;;;;;;;1.15;0.47;;;;;;;23.34;46.33;99382.55;1761516;80;21031;-54
2021/08/20 09:54:08;;;;;;;0.55;0.37;;;;;;;23.38;46.75;99380.34;1763233;79;21099;-56
2021/08/20 09:56:36;;;;;;;0.45;0.40;;;;;;;23.42;45.98;99380.86;1760609;80;21047;-56
2021/08/20 09:59:08;;;;;;;0.72;0.40;;;;;;;23.45;46.50;99373.16;1763842;80;21053;-56
2021/08/20 10:01:45;;;;;;;0.53;0.53;;;;;;;23.51;46.71;99370.30;1763876;80;20890;-56
2021/08/20 10:04:15;;;;;;;0.68;0.50;;;;;;;23.58;46.92;99368.59;1759855;79;21057;-56
2021/08/20 10:06:47;;;;;;;0.80;0.40;;;;;;;23.60;46.96;99367.41;1764053;80;20898;-57
2021/08/20 10:09:17;;;;;;;0.60;0.40;;;;;;;23.64;47.06;99370.70;1762282;80;20899;-56
2021/08/20 10:11:48;;;;;;;0.40;0.40;;;;;;;23.67;46.64;99364.86;1762795;80;21100;-56
2021/08/20 10:14:16;;;;;;;0.50;0.30;;;;;;;23.70;45.85;99365.39;1765533;79;20959;-56
2021/08/20 10:16:44;;;;;;;0.50;0.40;;;;;;;23.74;45.81;99357.14;1762307;80;20930;-57
2021/08/20 10:19:10;;;;;;;0.50;0.40;;;;;;;23.81;45.51;99356.50;1764779;80;21420;-56
2021/08/20 10:21:42;;;;;;;0.85;0.37;;;;;;;23.85;44.86;99362.86;1763057;79;20917;-56
2021/08/20 10:24:11;;;;;;;0.40;0.40;;;;;;;23.90;44.22;99358.25;1767948;79;21878;-56
2021/08/20 10:26:42;;;;;;;1.37;0.40;;;;;;;23.90;44.25;99363.23;1762374;80;20896;-58
2021/08/20 10:29:08;;;;;;;0.50;0.30;;;;;;;23.93;44.06;99364.76;1765597;79;21432;-56
2021/08/20 10:31:35;;;;;;;0.30;0.30;;;;;;;23.94;44.02;99351.36;1766949;79;20883;-56
2021/08/20 10:34:33;;;;;;;0.60;0.40;;;;;;;23.97;44.13;99354.66;1706778;82;21433;-55
2021/08/20 10:37:11;;;;;;;1.75;0.30;;;;;;;23.98;43.83;99353.63;1706748;82;21590;-56
2021/08/20 10:39:47;;;;;;;0.30;0.30;;;;;;;24.01;44.56;99351.89;1701623;82;21010;-56
2021/08/20 10:42:36;;;;;;;2.75;0.30;;;;;;;24.05;43.92;99346.42;1758686;79;21034;-57
2021/08/20 10:45:11;;;;;;;0.40;0.30;;;;;;;24.07;43.87;99358.63;1762412;79;21069;-56
2021/08/20 10:47:37;;;;;;;0.40;0.30;;;;;;;24.08;43.59;99351.55;1729144;81;22428;-56
2021/08/20 10:50:16;;;;;;;1.37;0.40;;;;;;;24.08;43.86;99348.80;1703049;82;21435;-57
2021/08/20 10:52:50;;;;;;;0.45;0.40;;;;;;;24.11;43.71;99354.48;1711288;82;21028;-56
2021/08/20 10:55:25;;;;;;;4.53;0.40;;;;;;;24.11;43.11;99353.11;1766056;79;22433;-55
2021/08/20 10:57:55;;;;;;;0.50;0.30;;;;;;;24.11;43.23;99355.86;1758484;80;21096;-56
2021/08/20 11:00:26;;;;;;;0.30;0.30;;;;;;;24.10;42.87;99359.13;1760555;80;22655;-56
2021/08/20 11:02:56;;;;;;;0.30;0.30;;;;;;;24.11;42.75;99351.23;1759365;80;21972;-56
2021/08/20 11:05:43;;;;;;;0.42;0.30;;;;;;;24.15;42.12;99351.77;1759546;80;21093;-56
2021/08/20 11:08:32;;;;;;;0.23;0.23;;;;;;;24.17;42.32;99354.31;1760285;80;21516;-56
2021/08/20 11:11:01;;;;;;;0.47;0.40;;;;;;;24.21;42.15;99347.49;1757581;79;21101;-57
2021/08/20 11:13:29;;;;;;;0.93;0.40;;;;;;;24.26;42.31;99343.70;1756197;80;21068;-57
2021/08/20 11:15:55;;;;;;;0.30;0.20;;;;;;;24.29;42.40;99347.50;1753134;80;21026;-57
2021/08/20 11:18:45;;;;;;;0.40;0.33;;;;;;;24.31;41.97;99339.43;1754409;80;21083;-57
2021/08/20 11:21:45;;;;;;;0.30;0.23;;;;;;;24.32;41.55;99327.91;1754031;80;21073;-55
2021/08/20 11:27:15;;;;;;;0.45;0.30;;;;;;;24.42;42.23;99339.06;1793843;78;23050;-55
2021/08/20 11:29:43;;;;;;;0.95;0.40;;;;;;;24.40;42.16;99338.91;1761004;79;21084;-54
2021/08/20 11:32:11;;;;;;;0.80;0.40;;;;;;;24.41;41.29;99333.22;1760662;79;21148;-54
2021/08/20 11:34:51;;;;;;;0.40;0.35;;;;;;;24.39;41.24;99343.55;1763463;80;20998;-54
2021/08/20 11:37:17;;;;;;;0.65;0.40;;;;;;;24.34;41.53;99339.58;1762042;79;20966;-55
2021/08/20 11:40:02;;;;;;;0.40;0.40;;;;;;;24.28;41.70;99343.02;1733465;80;22983;-54
2021/08/20 11:42:28;;;;;;;0.60;0.30;;;;;;;24.19;41.61;99338.00;1754455;80;21032;-55
2021/08/20 11:44:55;;;;;;;0.40;0.40;;;;;;;24.16;42.12;99341.08;1755673;80;21881;-55
2021/08/20 11:47:21;;;;;;;0.55;0.30;;;;;;;24.14;41.98;99343.16;1765199;79;22900;-56